Main page
METAR-TAF:

METAR-TAF

Airports :

RAF Benson

Benson, England

latitude: 51-37N, longitude: 001-05W, elevation: 63 m

Current weather observation

The report was made 47 minutes ago, at 04:50 UTC
Wind 2 kt from the South
Temperature 11°C
Humidity 87%
Pressure 1015 hPa
Visibility 10 km or more

METAR: EGUB 170450Z AUTO 18002KT 9999 // NCD 11/09 Q1015

Time: 06:37 (05:37 UTC)

Forecast

The report was made 7 hours and 8 minutes ago, at 22:29 UTC
Forecast valid from 17 at 00 UTC to 17 at 03 UTC
Wind 7 kt from the West
Visibility 10 km or more
Few clouds at a height of 4000 ft

TAF: EGUB 162229Z 1700/1703 26007KT 9999 FEW040

Weather observations and forecasts of more than 4000 airports (METAR and TAF reports).

The available stations are represented by yellow and red dots on the map.

Hover mouse over dot to see the name of the station.

Then click to see weather observations and forecasts.

To change the map : click on the green buttons with a black cross to zoom in, on the green button with a dash to zoom out, or on the green arrows for adjacent maps.


METAR-TAF: